Observation data for Fluvanna on 01/18/2019      Previous  Date  Next       Current Mesonet Observations  Soil Data  Daily Summary Page  Observations in Plain Language
KFVS 180600Z 19010KT 08/02 A3003 RMK A01 T00820017  RH  064%=      5-min Rain = 0
KFVS 180605Z 19010KT 08/02 A3003 RMK A01 T00820016  RH  064%=      5-min Rain = 0
KFVS 180610Z 19010KT 08/02 A3003 RMK A01 T00800016  RH  065%=      5-min Rain = 0
KFVS 180615Z 19009KT 08/02 A3003 RMK A01 T00800016  RH  065%=      5-min Rain = 0
KFVS 180620Z 19009KT 08/02 A3003 RMK A01 T00820017  RH  064%=      5-min Rain = 0
KFVS 180625Z 18008KT 08/02 A3003 RMK A01 T00770015  RH  066%=      5-min Rain = 0
KFVS 180630Z 18008KT 07/02 A3003 RMK A01 T00730016  RH  068%=      5-min Rain = 0
KFVS 180635Z 18008KT 07/02 A3002 RMK A01 T00740016  RH  068%=      5-min Rain = 0
KFVS 180640Z 18008KT 08/02 A3002 RMK A01 T00760017  RH  067%=      5-min Rain = 0
KFVS 180645Z 18008KT 08/02 A3002 RMK A01 T00750016  RH  067%=      5-min Rain = 0
KFVS 180650Z 18008KT 07/02 A3001 RMK A01 T00720016  RH  069%=      5-min Rain = 0
KFVS 180655Z 18008KT 07/02 A3001 RMK A01 T00720017  RH  069%=      5-min Rain = 0
KFVS 180700Z 19009KT 08/02 A3001 RMK A01 T00750018  RH  068%=      5-min Rain = 0
KFVS 180705Z 19010KT 08/02 A3001 RMK A01 T00760018  RH  067%=      5-min Rain = 0
KFVS 180710Z 19011KT 08/02 A3001 RMK A01 T00790019  RH  067%=      5-min Rain = 0
KFVS 180715Z 19012KT 08/02 A3001 RMK A01 T00800019  RH  066%=      5-min Rain = 0
KFVS 180720Z 19011KT 08/02 A3001 RMK A01 T00810019  RH  066%=      5-min Rain = 0
KFVS 180725Z 19011KT 08/02 A30 RMK A01 T00800018  RH  066%=      5-min Rain = 0
KFVS 180730Z 19011KT 08/02 A30 RMK A01 T00780018  RH  067%=      5-min Rain = 0
KFVS 180735Z 19010KT 08/02 A2999 RMK A01 T00770018  RH  067%=      5-min Rain = 0
KFVS 180740Z 19011KT 08/02 A2999 RMK A01 T00750018  RH  068%=      5-min Rain = 0
KFVS 180745Z 19010KT 08/02 A2999 RMK A01 T00750018  RH  068%=      5-min Rain = 0
KFVS 180750Z 19010KT 07/02 A2999 RMK A01 T00730018  RH  069%=      5-min Rain = 0
KFVS 180755Z 19011KT 07/02 A2999 RMK A01 T00740018  RH  069%=      5-min Rain = 0
KFVS 180800Z 19010KT 07/02 A2999 RMK A01 T00740018  RH  068%=      5-min Rain = 0
KFVS 180805Z 19010KT 07/02 A2999 RMK A01 T00720017  RH  069%=      5-min Rain = 0
KFVS 180810Z 19010KT 07/02 A2999 RMK A01 T00710017  RH  069%=      5-min Rain = 0
KFVS 180815Z 18010KT 07/02 A2998 RMK A01 T00730018  RH  069%=      5-min Rain = 0
KFVS 180820Z 18010KT 08/02 A2998 RMK A01 T00750018  RH  069%=      5-min Rain = 0
KFVS 180825Z 18011KT 08/02 A2998 RMK A01 T00750018  RH  068%=      5-min Rain = 0
KFVS 180830Z 18010KT 08/02 A2998 RMK A01 T00750018  RH  068%=      5-min Rain = 0
KFVS 180835Z 18011KT 07/02 A2998 RMK A01 T00730018  RH  069%=      5-min Rain = 0
KFVS 180840Z 18012KT 07/02 A2997 RMK A01 T00710017  RH  070%=      5-min Rain = 0
KFVS 180845Z 18011KT 07/02 A2997 RMK A01 T00740019  RH  069%=      5-min Rain = 0
KFVS 180850Z 19010KT 08/02 A2997 RMK A01 T00750019  RH  068%=      5-min Rain = 0
KFVS 180855Z 19010KT 07/02 A2997 RMK A01 T00710017  RH  069%=      5-min Rain = 0
KFVS 180900Z 18011KT 07/02 A2997 RMK A01 T00690017  RH  070%=      5-min Rain = 0
KFVS 180905Z 18011KT 07/02 A2997 RMK A01 T00700018  RH  070%=      5-min Rain = 0
KFVS 180910Z 18011KT 07/02 A2996 RMK A01 T00720018  RH  070%=      5-min Rain = 0
KFVS 180915Z 18011KT 07/02 A2996 RMK A01 T00740019  RH  069%=      5-min Rain = 0
KFVS 180920Z 18011KT 08/02 A2996 RMK A01 T00750019  RH  069%=      5-min Rain = 0
KFVS 180925Z 18010KT 07/02 A2996 RMK A01 T00740019  RH  069%=      5-min Rain = 0
KFVS 180930Z 18010KT 07/02 A2996 RMK A01 T00720018  RH  070%=      5-min Rain = 0
KFVS 180935Z 18010KT 07/02 A2996 RMK A01 T00720019  RH  070%=      5-min Rain = 0
KFVS 180940Z 18010KT 07/02 A2996 RMK A01 T00710018  RH  070%=      5-min Rain = 0
KFVS 180945Z 18011KT 07/02 A2996 RMK A01 T00680018  RH  071%=      5-min Rain = 0
KFVS 180950Z 18010KT 07/02 A2996 RMK A01 T00660018  RH  072%=      5-min Rain = 0
KFVS 180955Z 18009KT 07/02 A2996 RMK A01 T00660018  RH  072%=      5-min Rain = 0
KFVS 181000Z 19009KT 07/02 A2996 RMK A01 T00650017  RH  073%=      5-min Rain = 0
KFVS 181005Z 19009KT 07/02 A2995 RMK A01 T00650018  RH  073%=      5-min Rain = 0
KFVS 181010Z 18010KT 07/02 A2995 RMK A01 T00660019  RH  073%=      5-min Rain = 0
KFVS 181015Z 18010KT 07/02 A2994 RMK A01 T00670019  RH  073%=      5-min Rain = 0
KFVS 181020Z 18009KT 07/02 A2993 RMK A01 T00670019  RH  073%=      5-min Rain = 0
KFVS 181025Z 18009KT 07/02 A2993 RMK A01 T00680020  RH  073%=      5-min Rain = 0
KFVS 181030Z 19010KT 07/02 A2993 RMK A01 T00670020  RH  073%=      5-min Rain = 0
KFVS 181035Z 19009KT 07/02 A2993 RMK A01 T00680021  RH  073%=      5-min Rain = 0
KFVS 181040Z 19009KT 07/02 A2992 RMK A01 T00690021  RH  072%=      5-min Rain = 0
KFVS 181045Z 19009KT 07/02 A2992 RMK A01 T00670020  RH  073%=      5-min Rain = 0
KFVS 181050Z 20008KT 07/02 A2992 RMK A01 T00670021  RH  074%=      5-min Rain = 0
KFVS 181055Z 19009KT 07/02 A2991 RMK A01 T00670021  RH  074%=      5-min Rain = 0
KFVS 181100Z 20007KT 07/02 A2991 RMK A01 T00680022  RH  074%=      5-min Rain = 0
KFVS 181105Z 20008KT 07/02 A2991 RMK A01 T00680022  RH  074%=      5-min Rain = 0
KFVS 181110Z 19008KT 07/02 A2991 RMK A01 T00660021  RH  074%=      5-min Rain = 0
KFVS 181115Z 19008KT 06/02 A2991 RMK A01 T00620020  RH  076%=      5-min Rain = 0
KFVS 181120Z 19008KT 06/02 A299 RMK A01 T00620020  RH  076%=      5-min Rain = 0
KFVS 181125Z 19007KT 06/02 A299 RMK A01 T00630021  RH  076%=      5-min Rain = 0
KFVS 181130Z 19007KT 06/02 A299 RMK A01 T00610020  RH  076%=      5-min Rain = 0
KFVS 181135Z 19007KT 06/02 A299 RMK A01 T00600020  RH  077%=      5-min Rain = 0
KFVS 181140Z 19008KT 06/02 A2989 RMK A01 T00590020  RH  077%=      5-min Rain = 0
KFVS 181145Z 19008KT 06/02 A2989 RMK A01 T00590021  RH  077%=      5-min Rain = 0
KFVS 181150Z 19007KT 06/02 A2989 RMK A01 T00590021  RH  078%=      5-min Rain = 0
KFVS 181155Z 19008KT 06/02 A2988 RMK A01 T00590021  RH  078%=      5-min Rain = 0
KFVS 181200Z 19008KT 06/02 A2988 RMK A01 T00580021  RH  078%=      5-min Rain = 0
KFVS 181205Z 20008KT 06/02 A2988 RMK A01 T00590023  RH  079%=      5-min Rain = 0
KFVS 181210Z 20007KT 06/02 A2987 RMK A01 T00620024  RH  078%=      5-min Rain = 0
KFVS 181215Z 20008KT 06/03 A2987 RMK A01 T00620025  RH  078%=      5-min Rain = 0
KFVS 181220Z 20007KT 06/03 A2987 RMK A01 T00630026  RH  078%=      5-min Rain = 0
KFVS 181225Z 21007KT 06/03 A2987 RMK A01 T00630026  RH  078%=      5-min Rain = 0
KFVS 181230Z 21007KT 06/03 A2987 RMK A01 T00640026  RH  078%=      5-min Rain = 0
KFVS 181235Z 20008KT 06/03 A2987 RMK A01 T00630026  RH  079%=      5-min Rain = 0
KFVS 181240Z 20008KT 06/03 A2986 RMK A01 T00620027  RH  079%=      5-min Rain = 0
KFVS 181245Z 21007KT 06/03 A2986 RMK A01 T00610026  RH  080%=      5-min Rain = 0
KFVS 181250Z 21007KT 06/03 A2986 RMK A01 T00600027  RH  080%=      5-min Rain = 0
KFVS 181255Z 22007KT 06/03 A2986 RMK A01 T00600027  RH  081%=      5-min Rain = 0
KFVS 181300Z 22007KT 06/03 A2986 RMK A01 T00570025  RH  081%=      5-min Rain = 0
KFVS 181305Z 22009KT 06/03 A2987 RMK A01 T00560026  RH  082%=      5-min Rain = 0
KFVS 181310Z 22008KT 06/03 A2986 RMK A01 T00560026  RH  082%=      5-min Rain = 0
KFVS 181315Z 21008KT 05/03 A2986 RMK A01 T00540026  RH  083%=      5-min Rain = 0
KFVS 181320Z 20009KT 06/03 A2985 RMK A01 T00590029  RH  083%=      5-min Rain = 0
KFVS 181325Z 20009KT 06/03 A2985 RMK A01 T00610029  RH  082%=      5-min Rain = 0
KFVS 181330Z 20010KT 06/03 A2985 RMK A01 T00620030  RH  082%=      5-min Rain = 0
KFVS 181335Z 21009KT 06/03 A2986 RMK A01 T00640031  RH  081%=      5-min Rain = 0
KFVS 181340Z 21009KT 07/03 A2986 RMK A01 T00650031  RH  080%=      5-min Rain = 0
KFVS 181345Z 21009KT 06/03 A2986 RMK A01 T00640031  RH  081%=      5-min Rain = 0
KFVS 181350Z 21009KT 06/03 A2986 RMK A01 T00640031  RH  081%=      5-min Rain = 0
KFVS 181355Z 21009KT 06/03 A2986 RMK A01 T00640032  RH  081%=      5-min Rain = 0
KFVS 181400Z 21008KT 07/03 A2986 RMK A01 T00660032  RH  081%=      5-min Rain = 0
KFVS 181405Z 21008KT 07/03 A2986 RMK A01 T00660033  RH  081%=      5-min Rain = 0
KFVS 181410Z 21008KT 07/03 A2985 RMK A01 T00660033  RH  081%=      5-min Rain = 0
KFVS 181415Z 20008KT 07/03 A2985 RMK A01 T00680034  RH  080%=      5-min Rain = 0
KFVS 181420Z 21009KT 07/04 A2986 RMK A01 T00710035  RH  079%=      5-min Rain = 0
KFVS 181425Z 21008KT 08/04 A2985 RMK A01 T00770038  RH  078%=      5-min Rain = 0
KFVS 181430Z 21009KT 08/04 A2985 RMK A01 T00830039  RH  075%=      5-min Rain = 0
KFVS 181435Z 21009KT 09/04 A2985 RMK A01 T00890039  RH  072%=      5-min Rain = 0
KFVS 181440Z 21008KT 09/04 A2985 RMK A01 T00910039  RH  072%=      5-min Rain = 0
KFVS 181445Z 21008KT 09/04 A2985 RMK A01 T00930040  RH  071%=      5-min Rain = 0
KFVS 181450Z 21009G14KT 10/04 A2984 RMK A01 T00970040  RH  069%=      5-min Rain = 0
KFVS 181455Z 21010KT 10/04 A2984 RMK A01 T00990038  RH  067%=      5-min Rain = 0
KFVS 181500Z 21011KT 10/04 A2984 RMK A01 T01010038  RH  066%=      5-min Rain = 0
KFVS 181505Z 21011KT 10/04 A2984 RMK A01 T01020036  RH  065%=      5-min Rain = 0
KFVS 181510Z 21011KT 10/04 A2983 RMK A01 T01010035  RH  065%=      5-min Rain = 0
KFVS 181515Z 21012KT 10/04 A2983 RMK A01 T01010035  RH  065%=      5-min Rain = 0
KFVS 181520Z 21011KT 11/04 A2983 RMK A01 T01060039  RH  065%=      5-min Rain = 0
KFVS 181525Z 21013KT 11/04 A2983 RMK A01 T01080039  RH  064%=      5-min Rain = 0
KFVS 181530Z 21013KT 11/04 A2984 RMK A01 T01110040  RH  063%=      5-min Rain = 0
KFVS 181535Z 21013KT 11/04 A2984 RMK A01 T01140041  RH  062%=      5-min Rain = 0
KFVS 181540Z 21013KT 12/04 A2984 RMK A01 T01160041  RH  061%=      5-min Rain = 0
KFVS 181545Z 21014KT 12/04 A2984 RMK A01 T01200041  RH  060%=      5-min Rain = 0
KFVS 181550Z 21015G20KT 13/04 A2983 RMK A01 T01250040  RH  058%=      5-min Rain = 0
KFVS 181555Z 22017G22KT 13/04 A2984 RMK A01 T01300040  RH  055%=      5-min Rain = 0
KFVS 181600Z 21016G22KT 13/04 A2983 RMK A01 T01340040  RH  054%=      5-min Rain = 0
KFVS 181605Z 22016KT 14/04 A2983 RMK A01 T01380041  RH  053%=      5-min Rain = 0
KFVS 181610Z 22017G22KT 14/04 A2984 RMK A01 T01400039  RH  052%=      5-min Rain = 0
KFVS 181615Z 22016G21KT 14/04 A2984 RMK A01 T01440041  RH  051%=      5-min Rain = 0
KFVS 181620Z 22017KT 15/04 A2983 RMK A01 T01480040  RH  049%=      5-min Rain = 0
KFVS 181625Z 22016KT 15/04 A2983 RMK A01 T01530040  RH  048%=      5-min Rain = 0
KFVS 181630Z 21018G23KT 16/04 A2983 RMK A01 T01550038  RH  046%=      5-min Rain = 0
KFVS 181635Z 21018G24KT 16/04 A2983 RMK A01 T01590040  RH  046%=      5-min Rain = 0
KFVS 181640Z 21019KT 16/04 A2982 RMK A01 T01600041  RH  046%=      5-min Rain = 0
KFVS 181645Z 22018G23KT 16/04 A2982 RMK A01 T01630039  RH  045%=      5-min Rain = 0
KFVS 181650Z 22018G23KT 17/04 A2982 RMK A01 T01670039  RH  043%=      5-min Rain = 0
KFVS 181655Z 23018G23KT 17/04 A2982 RMK A01 T01690037  RH  042%=      5-min Rain = 0
KFVS 181700Z 23018G23KT 17/04 A2982 RMK A01 T01720038  RH  042%=      5-min Rain = 0
KFVS 181705Z 23019KT 17/03 A2982 RMK A01 T01720033  RH  040%=      5-min Rain = 0
KFVS 181710Z 23018G23KT 17/03 A2982 RMK A01 T01740032  RH  039%=      5-min Rain = 0
KFVS 181715Z 23017KT 18/03 A2982 RMK A01 T01790034  RH  039%=      5-min Rain = 0
KFVS 181720Z 24020KT 18/03 A2981 RMK A01 T01840028  RH  036%=      5-min Rain = 0
KFVS 181725Z 25023G29KT 19/03 A2981 RMK A01 T01880025  RH  034%=      5-min Rain = 0
KFVS 181730Z 24023G28KT 19/03 A298 RMK A01 T01900025  RH  034%=      5-min Rain = 0
KFVS 181735Z 24023G29KT 19/03 A298 RMK A01 T01920026  RH  034%=      5-min Rain = 0
KFVS 181740Z 24024G30KT 20/03 A2979 RMK A01 T01950025  RH  033%=      5-min Rain = 0
KFVS 181745Z 25028G36KT 20/02 A2979 RMK A01 T02000023  RH  031%=      5-min Rain = 0
KFVS 181750Z 25026G35KT 20/02 A2978 RMK A01 T02030020  RH  030%=      5-min Rain = 0
KFVS 181755Z 24027G32KT 21/02 A2977 RMK A01 T02060020  RH  029%=      5-min Rain = 0
KFVS 181800Z 24025G34KT 21/02 A2977 RMK A01 T02080020  RH  029%=      5-min Rain = 0
KFVS 181805Z 24025G31KT 21/02 A2977 RMK A01 T02110020  RH  029%=      5-min Rain = 0
KFVS 181810Z 24028G34KT 21/02 A2976 RMK A01 T02100019  RH  029%=      5-min Rain = 0
KFVS 181815Z 25026G33KT 21/02 A2976 RMK A01 T02100021  RH  029%=      5-min Rain = 0
KFVS 181820Z 25027G33KT 21/02 A2976 RMK A01 T02110018  RH  028%=      5-min Rain = 0
KFVS 181825Z 25026G35KT 21/02 A2975 RMK A01 T02130017  RH  028%=      5-min Rain = 0
KFVS 181830Z 25028G36KT 21/02 A2975 RMK A01 T02100017  RH  028%=      5-min Rain = 0
KFVS 181835Z 25027G35KT 21/02 A2975 RMK A01 T02110018  RH  028%=      5-min Rain = 0
KFVS 181840Z 25026G35KT 21/02 A2974 RMK A01 T02070015  RH  028%=      5-min Rain = 0
KFVS 181845Z 25025G31KT 21/02 A2974 RMK A01 T02080018  RH  029%=      5-min Rain = 0
KFVS 181850Z 25027G34KT 21/02 A2973 RMK A01 T02070018  RH  029%=      5-min Rain = 0
KFVS 181855Z 25026G34KT 21/02 A2973 RMK A01 T02050018  RH  029%=      5-min Rain = 0
KFVS 181900Z 25025G33KT 21/02 A2974 RMK A01 T02060019  RH  029%=      5-min Rain = 0
KFVS 181905Z 26026G34KT 20/01 A2973 RMK A01 T02030013  RH  029%=      5-min Rain = 0
KFVS 181910Z 26025G32KT 20/02 A2973 RMK A01 T02020015  RH  029%=      5-min Rain = 0
KFVS 181915Z 26025G32KT 20/01 A2973 RMK A01 T02000012  RH  029%=      5-min Rain = 0
KFVS 181920Z 26025G35KT 20/01 A2972 RMK A01 T02000013  RH  029%=      5-min Rain = 0
KFVS 181925Z 26024G30KT 20/01 A2972 RMK A01 T01990011  RH  029%=      5-min Rain = 0
KFVS 181930Z 25023G31KT 20/01 A2972 RMK A01 T01990013  RH  029%=      5-min Rain = 0
KFVS 181935Z 26025G30KT 20/01 A2971 RMK A01 T01980012  RH  029%=      5-min Rain = 0
KFVS 181940Z 26023G30KT 20/02 A2971 RMK A01 T01980015  RH  030%=      5-min Rain = 0
KFVS 181945Z 26021G27KT 20/02 A2971 RMK A01 T01990016  RH  030%=      5-min Rain = 0
KFVS 181950Z 25024G31KT 20/02 A297 RMK A01 T01990015  RH  030%=      5-min Rain = 0
KFVS 181955Z 25024G30KT 20/02 A297 RMK A01 T01990016  RH  030%=      5-min Rain = 0
KFVS 182000Z 25023G33KT 20/02 A297 RMK A01 T02000018  RH  030%=      5-min Rain = 0
KFVS 182005Z 25022G30KT 20/02 A2969 RMK A01 T02010018  RH  030%=      5-min Rain = 0
KFVS 182010Z 25022G30KT 20/02 A2969 RMK A01 T02040019  RH  030%=      5-min Rain = 0
KFVS 182015Z 25022G28KT 21/02 A2968 RMK A01 T02050016  RH  029%=      5-min Rain = 0
KFVS 182020Z 26023G29KT 21/02 A2968 RMK A01 T02060017  RH  029%=      5-min Rain = 0
KFVS 182025Z 25024G33KT 21/02 A2968 RMK A01 T02060015  RH  029%=      5-min Rain = 0
KFVS 182030Z 26023G30KT 21/02 A2968 RMK A01 T02050015  RH  029%=      5-min Rain = 0
KFVS 182035Z 26023G29KT 21/02 A2967 RMK A01 T02050015  RH  029%=      5-min Rain = 0
KFVS 182040Z 25021G27KT 21/02 A2967 RMK A01 T02080018  RH  029%=      5-min Rain = 0
KFVS 182045Z 25020G28KT 21/02 A2967 RMK A01 T02120019  RH  028%=      5-min Rain = 0
KFVS 182050Z 25023G28KT 21/02 A2967 RMK A01 T02130020  RH  028%=      5-min Rain = 0
KFVS 182055Z 26019G26KT 21/02 A2967 RMK A01 T02110016  RH  028%=      5-min Rain = 0
KFVS 182100Z 26023G35KT 21/01 A2967 RMK A01 T02140012  RH  027%=      5-min Rain = 0
KFVS 182105Z 27022G27KT 22/01 A2967 RMK A01 T02150007  RH  025%=      5-min Rain = 0
KFVS 182110Z 27021G29KT 22/01 A2967 RMK A01 T02150007  RH  025%=      5-min Rain = 0
KFVS 182115Z 27022G29KT 21/01 A2967 RMK A01 T02130006  RH  026%=      5-min Rain = 0
KFVS 182120Z 28025G31KT 21/01 A2967 RMK A01 T02130007  RH  026%=      5-min Rain = 0
KFVS 182125Z 28026G34KT 21/01 A2967 RMK A01 T02140009  RH  026%=      5-min Rain = 0
KFVS 182130Z 28028G34KT 21/01 A2968 RMK A01 T02130007  RH  026%=      5-min Rain = 0
KFVS 182135Z 28024G30KT 21/00 A2968 RMK A01 T02070004  RH  026%=      5-min Rain = 0
KFVS 182140Z 28024G29KT 20/00 A2968 RMK A01 T02020003  RH  027%=      5-min Rain = 0
KFVS 182145Z 28022G32KT 20/00 A2968 RMK A01 T02010004  RH  027%=      5-min Rain = 0
KFVS 182150Z 28025G31KT 20/01 A2968 RMK A01 T01990005  RH  028%=      5-min Rain = 0
KFVS 182155Z 28023G30KT 20/01 A2968 RMK A01 T02000006  RH  028%=      5-min Rain = 0
KFVS 182200Z 28020G30KT 20/01 A2968 RMK A01 T01980008  RH  028%=      5-min Rain = 0
KFVS 182205Z 28022G30KT 20/01 A2969 RMK A01 T01960006  RH  028%=      5-min Rain = 0
KFVS 182210Z 28022G27KT 20/01 A2969 RMK A01 T01950007  RH  029%=      5-min Rain = 0
KFVS 182215Z 28023G29KT 19/01 A2969 RMK A01 T01940010  RH  030%=      5-min Rain = 0
KFVS 182220Z 28021G29KT 19/01 A2969 RMK A01 T01920014  RH  031%=      5-min Rain = 0
KFVS 182225Z 28022G29KT 19/02 A2969 RMK A01 T01900015  RH  031%=      5-min Rain = 0
KFVS 182230Z 28021G26KT 19/02 A2969 RMK A01 T01880017  RH  032%=      5-min Rain = 0
KFVS 182235Z 28019G27KT 19/02 A2969 RMK A01 T01860020  RH  033%=      5-min Rain = 0
KFVS 182240Z 27019G24KT 18/02 A2969 RMK A01 T01840021  RH  034%=      5-min Rain = 0
KFVS 182245Z 27019G26KT 18/02 A2969 RMK A01 T01840019  RH  034%=      5-min Rain = 0
KFVS 182250Z 27017G22KT 18/02 A297 RMK A01 T01840017  RH  033%=      5-min Rain = 0
KFVS 182255Z 27017G22KT 18/01 A297 RMK A01 T01830014  RH  033%=      5-min Rain = 0
KFVS 182300Z 27017KT 18/01 A297 RMK A01 T01820013  RH  033%=      5-min Rain = 0
KFVS 182305Z 27016G21KT 18/01 A297 RMK A01 T01800012  RH  033%=      5-min Rain = 0
KFVS 182310Z 28019G27KT 18/01 A2971 RMK A01 T01800012  RH  033%=      5-min Rain = 0
KFVS 182315Z 27020G26KT 18/01 A2971 RMK A01 T01770012  RH  033%=      5-min Rain = 0
KFVS 182320Z 27020G25KT 18/01 A2971 RMK A01 T01750010  RH  033%=      5-min Rain = 0
KFVS 182325Z 27020G26KT 17/01 A2971 RMK A01 T01730009  RH  033%=      5-min Rain = 0
KFVS 182330Z 27018G24KT 17/01 A2971 RMK A01 T01720008  RH  033%=      5-min Rain = 0
KFVS 182335Z 28021G28KT 17/00 A2971 RMK A01 T01710002  RH  032%=      5-min Rain = 0
KFVS 182340Z 27015KT 17/00 A2971 RMK A01 T01690002  RH  033%=      5-min Rain = 0
KFVS 182345Z 28021G27KT 17/M01 A2971 RMK A01 T01681007  RH  031%=      5-min Rain = 0
KFVS 182350Z 28019G26KT 17/M01 A2971 RMK A01 T01661012  RH  030%=      5-min Rain = 0
KFVS 182355Z 27019G24KT 16/M01 A2972 RMK A01 T01641011  RH  030%=      5-min Rain = 0
KFVS 190000Z 26022G31KT 16/M01 A2974 RMK A01 T01621008  RH  032%=      5-min Rain = 0
KFVS 190005Z 27021G26KT 16/00 A2974 RMK A01 T01570004  RH  036%=      5-min Rain = 0
KFVS 190010Z 28025G34KT 16/M01 A2974 RMK A01 T01591008  RH  032%=      5-min Rain = 0
KFVS 190015Z 28021G27KT 16/M03 A2972 RMK A01 T01591030  RH  027%=      5-min Rain = 0
KFVS 190020Z 28027G37KT 16/M04 A2972 RMK A01 T01601036  RH  026%=      5-min Rain = 0
KFVS 190025Z 27021G26KT 16/M03 A2973 RMK A01 T01591033  RH  027%=      5-min Rain = 0
KFVS 190030Z 26020G26KT 16/M03 A2973 RMK A01 T01571032  RH  027%=      5-min Rain = 0
KFVS 190035Z 25017G22KT 16/M03 A2973 RMK A01 T01551030  RH  028%=      5-min Rain = 0
KFVS 190040Z 25017KT 15/M03 A2974 RMK A01 T01531026  RH  029%=      5-min Rain = 0
KFVS 190045Z 24016G23KT 15/M03 A2972 RMK A01 T01511025  RH  030%=      5-min Rain = 0
KFVS 190050Z 27018G24KT 15/M03 A2974 RMK A01 T01521027  RH  029%=      5-min Rain = 0
KFVS 190055Z 27022G38KT 15/M04 A2974 RMK A01 T01531035  RH  027%=      5-min Rain = 0
KFVS 190100Z 28020G27KT 15/M05 A2975 RMK A01 T01531049  RH  025%=      5-min Rain = 0
KFVS 190105Z 27022G29KT 15/M05 A2975 RMK A01 T01521046  RH  025%=      5-min Rain = 0
KFVS 190110Z 26022G29KT 15/M05 A2975 RMK A01 T01511045  RH  026%=      5-min Rain = 0
KFVS 190115Z 27016G22KT 15/M05 A2973 RMK A01 T01481045  RH  026%=      5-min Rain = 0
KFVS 190120Z 27019KT 15/M05 A2973 RMK A01 T01451047  RH  026%=      5-min Rain = 0
KFVS 190125Z 27019G25KT 14/M05 A2974 RMK A01 T01421047  RH  027%=      5-min Rain = 0
KFVS 190130Z 27019G26KT 14/M05 A2973 RMK A01 T01401047  RH  027%=      5-min Rain = 0
KFVS 190135Z 27018G26KT 14/M05 A2973 RMK A01 T01381047  RH  027%=      5-min Rain = 0
KFVS 190140Z 27019G25KT 14/M05 A2974 RMK A01 T01371047  RH  028%=      5-min Rain = 0
KFVS 190145Z 27020KT 14/M05 A2974 RMK A01 T01361046  RH  028%=      5-min Rain = 0
KFVS 190150Z 27018G23KT 13/M05 A2974 RMK A01 T01341046  RH  028%=      5-min Rain = 0
KFVS 190155Z 27017KT 13/M05 A2973 RMK A01 T01321045  RH  029%=      5-min Rain = 0
KFVS 190200Z 27017G22KT 13/M05 A2974 RMK A01 T01301045  RH  029%=      5-min Rain = 0
KFVS 190205Z 26018G23KT 13/M05 A2974 RMK A01 T01291045  RH  030%=      5-min Rain = 0
KFVS 190210Z 27021G28KT 13/M05 A2975 RMK A01 T01311046  RH  029%=      5-min Rain = 0
KFVS 190215Z 27028G41KT 13/M04 A2975 RMK A01 T01341043  RH  029%=      5-min Rain = 0
KFVS 190220Z 28031G41KT 13/M03 A2975 RMK A01 T01321029  RH  033%=      5-min Rain = 0
KFVS 190225Z 31036G52KT 13/M02 A2977 RMK A01 T01261017  RH  037%=      5-min Rain = 0
KFVS 190230Z 33039G51KT 11/M01 A2978 RMK A01 T01081009  RH  045%=      5-min Rain = 0
KFVS 190235Z 33034G43KT 10/M00 A298 RMK A01 T01001004  RH  049%=      5-min Rain = 0
KFVS 190240Z 33032G39KT 10/M00 A2981 RMK A01 T00961004  RH  050%=      5-min Rain = 0
KFVS 190245Z 33031G41KT 09/M00 A2981 RMK A01 T00911003  RH  052%=      5-min Rain = 0
KFVS 190250Z 33032G40KT 09/M00 A2981 RMK A01 T00861002  RH  054%=      5-min Rain = 0
KFVS 190255Z 33029G35KT 08/M00 A2981 RMK A01 T00821002  RH  056%=      5-min Rain = 0
KFVS 190300Z 34025G35KT 08/M00 A2981 RMK A01 T00791002  RH  057%=      5-min Rain = 0
KFVS 190305Z 33028G35KT 08/M00 A2982 RMK A01 T00771002  RH  058%=      5-min Rain = 0
KFVS 190310Z 33029G34KT 08/M00 A2983 RMK A01 T00751003  RH  058%=      5-min Rain = 0
KFVS 190315Z 33026G33KT 07/M00 A2984 RMK A01 T00731003  RH  059%=      5-min Rain = 0
KFVS 190320Z 33023G35KT 07/M00 A2984 RMK A01 T00701004  RH  060%=      5-min Rain = 0
KFVS 190325Z 33025G32KT 07/M01 A2985 RMK A01 T00671005  RH  061%=      5-min Rain = 0
KFVS 190330Z 34023G31KT 07/M01 A2985 RMK A01 T00661005  RH  061%=      5-min Rain = 0
KFVS 190335Z 33023G29KT 06/M01 A2986 RMK A01 T00641005  RH  062%=      5-min Rain = 0
KFVS 190340Z 33025G34KT 06/M01 A2986 RMK A01 T00631005  RH  062%=      5-min Rain = 0
KFVS 190345Z 33028G39KT 06/M01 A2987 RMK A01 T00641005  RH  062%=      5-min Rain = 0
KFVS 190350Z 33030G37KT 06/M01 A2988 RMK A01 T00641005  RH  062%=      5-min Rain = 0
KFVS 190355Z 33026G33KT 06/M01 A2988 RMK A01 T00641005  RH  062%=      5-min Rain = 0
KFVS 190400Z 33025G31KT 06/M01 A2989 RMK A01 T00631005  RH  062%=      5-min Rain = 0
KFVS 190405Z 33024G30KT 06/M01 A2989 RMK A01 T00631005  RH  062%=      5-min Rain = 0
KFVS 190410Z 34025G36KT 06/M01 A299 RMK A01 T00621005  RH  062%=      5-min Rain = 0
KFVS 190415Z 34029G41KT 06/M01 A299 RMK A01 T00591007  RH  063%=      5-min Rain = 0
KFVS 190420Z 33032G42KT 05/M01 A2991 RMK A01 T00531014  RH  062%=      5-min Rain = 0
KFVS 190425Z 33031G40KT 05/M02 A2991 RMK A01 T00491015  RH  064%=      5-min Rain = 0
KFVS 190430Z 33029G38KT 05/M01 A2991 RMK A01 T00471014  RH  065%=      5-min Rain = 0
KFVS 190435Z 34030G39KT 05/M02 A2992 RMK A01 T00451016  RH  065%=      5-min Rain = 0
KFVS 190440Z 34029G37KT 05/M02 A2992 RMK A01 T00451017  RH  064%=      5-min Rain = 0
KFVS 190445Z 34029G36KT 05/M02 A2993 RMK A01 T00451019  RH  064%=      5-min Rain = 0
KFVS 190450Z 34023G32KT 05/M02 A2994 RMK A01 T00461019  RH  064%=      5-min Rain = 0
KFVS 190455Z 34030G40KT 05/M02 A2994 RMK A01 T00461022  RH  062%=      5-min Rain = 0
KFVS 190500Z 34033G42KT 04/M03 A2994 RMK A01 T00441027  RH  060%=      5-min Rain = 0
KFVS 190505Z 34031G39KT 04/M03 A2995 RMK A01 T00431029  RH  060%=      5-min Rain = 0
KFVS 190510Z 34026G39KT 04/M03 A2996 RMK A01 T00421028  RH  061%=      5-min Rain = 0
KFVS 190515Z 34030G38KT 04/M03 A2997 RMK A01 T00421028  RH  061%=      5-min Rain = 0
KFVS 190520Z 34027G35KT 04/M03 A2997 RMK A01 T00431027  RH  061%=      5-min Rain = 0
KFVS 190525Z 34024G33KT 04/M03 A2998 RMK A01 T00431025  RH  062%=      5-min Rain = 0
KFVS 190530Z 34023G33KT 04/M03 A2999 RMK A01 T00431025  RH  062%=      5-min Rain = 0
KFVS 190535Z 34020G27KT 04/M03 A2999 RMK A01 T00421028  RH  061%=      5-min Rain = 0
KFVS 190540Z 34020G26KT 04/M03 A2999 RMK A01 T00411028  RH  061%=      5-min Rain = 0
KFVS 190545Z 34021G26KT 04/M03 A2999 RMK A01 T00411026  RH  062%=      5-min Rain = 0
KFVS 190550Z 34024G32KT 04/M03 A30 RMK A01 T00411026  RH  062%=      5-min Rain = 0
KFVS 190555Z 34025G32KT 04/M03 A30 RMK A01 T00411026  RH  062%=      5-min Rain = 0

Page generated in 0.0093 seconds.